createdAt,value
2019-05-13T00:02:04.547Z,2.20
2019-05-13T00:04:33.716Z,3.50
2019-05-13T00:07:04.823Z,2.33
2019-05-13T00:09:34.219Z,2.50
2019-05-13T00:12:04.688Z,2.07
2019-05-13T00:14:34.541Z,2.13
2019-05-13T00:17:04.309Z,2.83
2019-05-13T00:19:33.919Z,2.70
2019-05-13T00:22:03.873Z,2.90
2019-05-13T00:24:34.046Z,2.63
2019-05-13T00:27:04.082Z,2.80
2019-05-13T00:29:34.122Z,3.23
2019-05-13T00:32:04.723Z,2.60
2019-05-13T00:34:34.253Z,2.40
2019-05-13T00:37:11.172Z,2.30
2019-05-13T00:39:34.154Z,2.57
2019-05-13T00:42:03.963Z,2.40
2019-05-13T00:44:34.081Z,2.83
2019-05-13T00:47:04.439Z,2.90
2019-05-13T00:49:34.536Z,2.63
2019-05-13T00:52:04.013Z,2.50
2019-05-13T00:54:34.238Z,2.40
2019-05-13T00:57:04.192Z,2.77
2019-05-13T00:59:34.110Z,2.50
2019-05-13T01:02:03.871Z,2.53
2019-05-13T01:04:33.858Z,2.50
2019-05-13T01:07:04.460Z,2.27
2019-05-13T01:09:34.256Z,2.93
2019-05-13T01:12:04.461Z,4.90
2019-05-13T01:14:34.423Z,4.33
2019-05-13T01:17:04.001Z,3.30
2019-05-13T01:19:34.179Z,2.47
2019-05-13T01:22:03.565Z,2.47
2019-05-13T01:24:33.905Z,2.63
2019-05-13T01:27:04.142Z,2.57
2019-05-13T01:29:34.467Z,2.77
2019-05-13T01:32:04.495Z,2.60
2019-05-13T01:34:34.503Z,2.17
2019-05-13T01:37:04.221Z,2.77
2019-05-13T01:39:34.947Z,2.60
2019-05-13T01:42:04.358Z,2.87
2019-05-13T01:44:33.845Z,2.73
2019-05-13T01:47:04.572Z,2.60
2019-05-13T01:49:34.088Z,2.70
2019-05-13T01:52:03.983Z,2.97
2019-05-13T01:54:33.976Z,2.57
2019-05-13T01:57:04.488Z,2.37
2019-05-13T01:59:34.720Z,2.53
2019-05-13T02:02:03.994Z,2.60
2019-05-13T02:04:33.594Z,2.50
2019-05-13T02:07:04.068Z,2.83
2019-05-13T02:09:34.095Z,2.73
2019-05-13T02:12:04.898Z,2.20
2019-05-13T02:14:34.831Z,2.33
2019-05-13T02:17:04.435Z,2.90
2019-05-13T02:19:33.803Z,2.43
2019-05-13T02:22:03.962Z,2.23
2019-05-13T02:24:34.084Z,2.47
2019-05-13T02:27:03.814Z,2.50
2019-05-13T02:29:34.392Z,2.60
2019-05-13T02:32:03.844Z,2.53
2019-05-13T02:34:32.965Z,3.17
2019-05-13T02:37:03.187Z,2.83
2019-05-13T02:39:33.072Z,2.63
2019-05-13T02:42:03.607Z,2.50
2019-05-13T02:44:33.465Z,2.60
2019-05-13T02:47:03.610Z,2.90
2019-05-13T02:49:33.332Z,2.57
2019-05-13T02:52:03.267Z,2.37
2019-05-13T02:54:34.301Z,2.17
2019-05-13T02:57:04.001Z,2.37
2019-05-13T02:59:33.757Z,2.37
2019-05-13T03:02:03.933Z,2.30
2019-05-13T03:04:33.670Z,2.57
2019-05-13T03:07:03.213Z,2.50
2019-05-13T03:09:32.796Z,2.67
2019-05-13T03:12:03.955Z,2.30
2019-05-13T03:14:33.832Z,2.60
2019-05-13T03:17:15.182Z,2.50
2019-05-13T03:19:44.295Z,2.73
2019-05-13T03:22:13.898Z,2.90
2019-05-13T03:24:43.189Z,2.90
2019-05-13T03:27:12.980Z,2.93
2019-05-13T03:29:43.350Z,2.27
2019-05-13T03:32:16.476Z,2.60
2019-05-13T03:34:45.583Z,2.83
2019-05-13T03:37:16.254Z,3.23
2019-05-13T03:39:47.731Z,2.87
2019-05-13T03:42:16.875Z,2.80
2019-05-13T03:44:47.595Z,3.40
2019-05-13T03:47:18.558Z,2.67
2019-05-13T03:49:49.300Z,2.73
2019-05-13T03:52:18.613Z,3.10
2019-05-13T03:54:48.127Z,2.90
2019-05-13T03:57:17.071Z,2.97
2019-05-13T03:59:46.799Z,2.90
2019-05-13T04:02:16.451Z,2.80
2019-05-13T04:04:45.397Z,2.70
2019-05-13T04:07:14.897Z,2.67
2019-05-13T04:09:44.383Z,3.27
2019-05-13T04:12:13.740Z,2.90
2019-05-13T04:14:42.694Z,3.10
2019-05-13T04:17:12.679Z,2.77
2019-05-13T04:19:42.542Z,2.90
2019-05-13T04:22:12.860Z,3.03
2019-05-13T04:24:42.844Z,2.77
2019-05-13T04:27:13.346Z,3.10
2019-05-13T04:29:43.367Z,3.00
2019-05-13T04:32:13.205Z,3.30
2019-05-13T04:34:42.705Z,3.30
2019-05-13T04:37:13.276Z,2.93
2019-05-13T04:39:51.138Z,2.73
2019-05-13T04:42:13.485Z,3.10
2019-05-13T04:44:43.025Z,3.10
2019-05-13T04:47:12.906Z,2.40
2019-05-13T04:49:43.007Z,2.70
2019-05-13T04:52:13.462Z,3.20
2019-05-13T04:54:43.595Z,2.67
2019-05-13T04:57:13.337Z,3.07
2019-05-13T04:59:44.515Z,3.03
2019-05-13T05:02:48.974Z,2.97
2019-05-13T05:05:57.765Z,2.83
2019-05-13T05:09:25.883Z,2.90
2019-05-13T05:12:16.946Z,2.90
2019-05-13T05:15:23.392Z,3.07
2019-05-13T05:18:32.641Z,2.43
2019-05-13T05:21:12.441Z,2.83
2019-05-13T05:24:22.859Z,2.80
2019-05-13T05:27:26.441Z,3.03
2019-05-13T05:30:32.219Z,2.37
2019-05-13T05:33:31.916Z,2.50
2019-05-13T05:36:38.682Z,2.80
2019-05-13T05:39:28.205Z,2.63
2019-05-13T05:41:58.272Z,2.70
2019-05-13T05:44:32.100Z,2.50
2019-05-13T05:47:02.710Z,2.37
2019-05-13T05:49:32.203Z,2.50
2019-05-13T05:52:03.160Z,2.60
2019-05-13T05:54:34.734Z,2.40
2019-05-13T05:57:05.075Z,1.97
2019-05-13T05:59:34.947Z,2.43
2019-05-13T06:02:05.494Z,2.20
2019-05-13T06:04:34.761Z,2.67
2019-05-13T06:07:03.846Z,2.23
2019-05-13T06:09:32.818Z,1.97
2019-05-13T06:12:02.350Z,2.27
2019-05-13T06:14:32.738Z,2.67
2019-05-13T06:17:02.911Z,2.40
2019-05-13T06:19:32.313Z,2.00
2019-05-13T06:22:02.759Z,3.10
2019-05-13T06:24:32.061Z,2.27
2019-05-13T06:27:01.633Z,2.43
2019-05-13T06:29:31.748Z,2.27
2019-05-13T06:32:15.143Z,2.40
2019-05-13T06:34:33.133Z,2.00
2019-05-13T06:37:02.621Z,2.40
2019-05-13T06:39:32.134Z,2.23
2019-05-13T06:42:02.646Z,2.47
2019-05-13T06:44:31.980Z,2.10
2019-05-13T06:47:02.484Z,1.90
2019-05-13T06:49:32.702Z,2.00
2019-05-13T06:52:02.129Z,2.13
2019-05-13T06:54:33.084Z,1.93
2019-05-13T06:57:05.206Z,2.63
2019-05-13T06:59:32.751Z,1.80
2019-05-13T07:02:02.361Z,2.03
2019-05-13T07:04:32.716Z,1.80
2019-05-13T07:07:12.370Z,2.53
2019-05-13T07:09:34.293Z,2.07
2019-05-13T07:12:03.603Z,2.10
2019-05-13T07:14:32.834Z,2.03
2019-05-13T07:17:02.349Z,2.87
2019-05-13T07:19:32.396Z,2.10
2019-05-13T07:22:02.683Z,1.90
2019-05-13T07:24:32.582Z,1.97
2019-05-13T07:27:02.179Z,2.10
2019-05-13T07:29:32.773Z,1.77
2019-05-13T07:32:02.242Z,2.40
2019-05-13T07:34:33.480Z,2.00
2019-05-13T07:37:02.338Z,1.93
2019-05-13T07:39:32.995Z,1.90
2019-05-13T07:42:05.476Z,2.00
2019-05-13T07:44:32.731Z,2.30
2019-05-13T07:47:03.574Z,1.90
2019-05-13T07:49:33.724Z,1.97
2019-05-13T07:52:02.958Z,1.97
2019-05-13T07:54:32.979Z,1.87
2019-05-13T07:57:02.410Z,1.87
2019-05-13T07:59:32.225Z,2.33
2019-05-13T08:02:02.311Z,2.20
2019-05-13T08:04:33.401Z,2.40
2019-05-13T08:07:02.580Z,2.00
2019-05-13T08:09:32.223Z,2.03
2019-05-13T08:12:09.843Z,1.90
2019-05-13T08:14:33.326Z,2.27
2019-05-13T08:17:03.011Z,2.53
2019-05-13T08:19:32.801Z,2.40
2019-05-13T08:22:02.531Z,1.97
2019-05-13T08:24:31.795Z,2.17
2019-05-13T08:27:02.153Z,1.97
2019-05-13T08:29:32.721Z,2.00
2019-05-13T08:32:03.020Z,2.00
2019-05-13T08:34:33.066Z,1.70
2019-05-13T08:37:03.174Z,1.90
2019-05-13T08:39:38.188Z,1.60
2019-05-13T08:42:15.031Z,1.60
2019-05-13T08:44:34.487Z,1.80
2019-05-13T08:47:03.706Z,1.87
2019-05-13T08:49:33.565Z,1.90
2019-05-13T08:52:02.356Z,1.70
2019-05-13T08:54:32.957Z,1.60
2019-05-13T08:57:03.224Z,1.70
2019-05-13T08:59:32.846Z,1.80
2019-05-13T09:02:03.138Z,1.70
2019-05-13T09:04:32.590Z,1.73
2019-05-13T09:07:02.515Z,1.40
2019-05-13T09:09:32.049Z,1.70
2019-05-13T09:12:02.463Z,1.40
2019-05-13T09:14:32.749Z,1.40
2019-05-13T09:17:02.244Z,1.43
2019-05-13T09:19:32.550Z,0.83
2019-05-13T09:22:03.031Z,1.13
2019-05-13T09:24:37.129Z,1.33
2019-05-13T09:27:04.070Z,1.30
2019-05-13T09:29:32.894Z,1.40
2019-05-13T09:32:03.684Z,1.50
2019-05-13T09:34:33.089Z,1.20
2019-05-13T09:37:02.954Z,1.10
2019-05-13T09:39:32.602Z,1.20
2019-05-13T09:42:02.876Z,1.30
2019-05-13T09:44:33.074Z,1.00
2019-05-13T09:47:03.002Z,0.97
2019-05-13T09:49:33.291Z,1.47
2019-05-13T09:52:02.517Z,1.60
2019-05-13T09:54:32.597Z,1.30
2019-05-13T09:57:02.165Z,1.27
2019-05-13T09:59:32.063Z,1.30
2019-05-13T10:02:03.159Z,1.60
2019-05-13T10:04:32.163Z,1.60
2019-05-13T10:07:02.401Z,1.50
2019-05-13T10:09:32.591Z,1.43
2019-05-13T10:12:03.329Z,1.00
2019-05-13T10:14:33.333Z,1.70
2019-05-13T10:17:06.366Z,1.33
2019-05-13T10:19:34.504Z,1.30
2019-05-13T10:22:04.164Z,1.67
2019-05-13T10:24:33.405Z,1.60
2019-05-13T10:27:02.866Z,1.50
2019-05-13T10:29:36.619Z,1.43
2019-05-13T10:32:06.155Z,1.10
2019-05-13T10:34:35.290Z,1.23
2019-05-13T10:37:04.587Z,1.50
2019-05-13T10:39:34.657Z,1.23
2019-05-13T10:42:04.007Z,1.33
2019-05-13T10:44:33.620Z,1.53
2019-05-13T10:47:02.729Z,1.40
2019-05-13T10:49:33.041Z,1.10
2019-05-13T10:52:03.276Z,0.93
2019-05-13T10:54:32.864Z,0.80
2019-05-13T10:57:03.845Z,0.80
2019-05-13T10:59:33.684Z,0.90
2019-05-13T11:02:02.899Z,0.90
2019-05-13T11:04:32.672Z,1.07
2019-05-13T11:07:03.334Z,0.80
2019-05-13T11:09:32.783Z,1.00
2019-05-13T11:12:03.997Z,1.00
2019-05-13T11:14:33.258Z,0.77
2019-05-13T11:17:02.198Z,1.00
2019-05-13T11:19:36.630Z,1.40
2019-05-13T11:24:32.793Z,1.20
2019-05-13T11:27:08.017Z,1.30
2019-05-13T11:29:36.941Z,1.00
2019-05-13T11:32:06.588Z,1.10
2019-05-13T11:34:35.743Z,1.20
2019-05-13T11:37:04.718Z,1.50
2019-05-13T11:39:34.201Z,1.17
2019-05-13T11:42:03.307Z,1.13
2019-05-13T11:44:32.608Z,1.33
2019-05-13T11:47:02.336Z,1.60
2019-05-13T11:49:31.923Z,1.30
2019-05-13T11:52:02.642Z,1.13
2019-05-13T11:54:31.877Z,1.10
2019-05-13T11:57:05.720Z,1.27
2019-05-13T11:59:32.942Z,1.20
2019-05-13T12:02:04.612Z,1.70
2019-05-13T12:04:34.858Z,1.40
2019-05-13T12:07:04.469Z,1.60
2019-05-13T12:09:33.869Z,1.53
2019-05-13T12:12:03.479Z,1.50
2019-05-13T12:14:47.687Z,1.30
2019-05-13T12:17:03.743Z,1.40
2019-05-13T12:19:32.521Z,1.60
2019-05-13T12:22:02.659Z,1.70
2019-05-13T12:24:32.519Z,1.40
2019-05-13T12:27:03.653Z,1.60
2019-05-13T12:29:32.505Z,1.77
2019-05-13T12:32:03.229Z,1.70
2019-05-13T12:34:39.719Z,1.40
2019-05-13T12:37:04.541Z,1.50
2019-05-13T12:39:34.274Z,1.60
2019-05-13T12:42:03.741Z,1.70
2019-05-13T12:44:33.051Z,1.63
2019-05-13T12:47:03.343Z,2.40
2019-05-13T12:49:36.408Z,1.70
2019-05-13T12:52:04.770Z,1.87
2019-05-13T12:54:33.704Z,1.70
2019-05-13T12:57:03.692Z,1.57
2019-05-13T12:59:32.833Z,1.50
2019-05-13T13:02:03.207Z,1.83
2019-05-13T13:04:33.811Z,1.73
2019-05-13T13:07:04.001Z,1.70
2019-05-13T13:09:33.748Z,1.87
2019-05-13T13:12:02.845Z,1.60
2019-05-13T13:14:38.426Z,1.67
2019-05-13T13:17:04.099Z,2.00
2019-05-13T13:19:34.158Z,1.70
2019-05-13T13:22:07.634Z,1.60
2019-05-13T13:24:34.181Z,1.70
2019-05-13T13:27:03.378Z,1.30
2019-05-13T13:29:33.997Z,1.70
2019-05-13T13:32:03.192Z,1.33
2019-05-13T13:34:33.669Z,1.20
2019-05-13T13:37:05.020Z,1.17
2019-05-13T13:39:33.815Z,1.10
2019-05-13T13:42:05.424Z,1.23
2019-05-13T13:44:35.061Z,1.87
2019-05-13T13:47:04.401Z,1.00
2019-05-13T13:49:34.858Z,1.00
2019-05-13T13:52:04.306Z,1.20
2019-05-13T13:54:33.941Z,1.20
2019-05-13T13:57:03.035Z,1.10
2019-05-13T13:59:36.021Z,1.07
2019-05-13T14:02:05.519Z,1.30
2019-05-13T14:04:34.065Z,1.50
2019-05-13T14:07:04.309Z,1.30
2019-05-13T14:07:27.843Z,1.30
2019-05-13T14:09:33.960Z,1.37
2019-05-13T14:12:03.185Z,1.50
2019-05-13T14:14:32.655Z,1.20
2019-05-13T14:17:02.404Z,1.23
2019-05-13T14:19:32.335Z,0.80
2019-05-13T14:22:02.092Z,1.10
2019-05-13T14:24:33.081Z,1.20
2019-05-13T14:27:03.097Z,1.10
2019-05-13T14:29:40.531Z,1.20
2019-05-13T14:32:03.119Z,1.10
2019-05-13T14:34:32.239Z,1.00
2019-05-13T14:37:01.517Z,1.10
2019-05-13T14:39:31.919Z,1.03
2019-05-13T14:42:02.254Z,0.97
2019-05-13T14:44:32.457Z,1.00
2019-05-13T14:47:01.752Z,0.90
2019-05-13T14:49:31.663Z,0.90
2019-05-13T14:52:01.424Z,1.00
2019-05-13T14:54:31.332Z,1.03
2019-05-13T14:57:02.394Z,1.17
2019-05-13T14:59:31.842Z,0.90
2019-05-13T15:02:01.426Z,1.00
2019-05-13T15:04:52.307Z,1.00
2019-05-13T15:07:21.618Z,1.00
2019-05-13T15:09:51.531Z,1.17
2019-05-13T15:12:21.617Z,1.20
2019-05-13T15:14:52.402Z,0.87
2019-05-13T15:17:21.520Z,1.20
2019-05-13T15:19:52.444Z,1.10
2019-05-13T15:22:22.758Z,1.00
2019-05-13T15:24:52.520Z,1.20
2019-05-13T15:27:22.470Z,1.27
2019-05-13T15:29:51.806Z,1.07
2019-05-13T15:32:21.755Z,1.10
2019-05-13T15:34:51.940Z,1.30
2019-05-13T15:37:21.547Z,1.20
2019-05-13T15:39:51.844Z,1.03
2019-05-13T15:42:21.785Z,1.40
2019-05-13T15:44:52.952Z,1.20
2019-05-13T15:47:24.088Z,1.20
2019-05-13T15:49:52.793Z,1.30
2019-05-13T15:52:22.583Z,1.50
2019-05-13T15:54:52.330Z,1.33
2019-05-13T15:57:21.658Z,1.53
2019-05-13T15:59:51.779Z,1.50
2019-05-13T16:02:22.629Z,1.40
2019-05-13T16:05:00.699Z,1.57
2019-05-13T16:07:23.301Z,1.40
2019-05-13T16:09:52.806Z,1.30
2019-05-13T16:12:21.964Z,1.40
2019-05-13T16:14:51.089Z,1.50
2019-05-13T16:17:30.600Z,1.33
2019-05-13T16:19:53.471Z,1.77
2019-05-13T16:22:23.064Z,1.77
2019-05-13T16:24:52.424Z,1.37
2019-05-13T16:27:22.382Z,1.30
2019-05-13T16:29:51.772Z,1.50
2019-05-13T16:32:22.706Z,1.80
2019-05-13T16:34:52.076Z,1.80
2019-05-13T16:37:22.000Z,1.57
2019-05-13T16:39:52.175Z,1.70
2019-05-13T16:42:22.563Z,1.40
2019-05-13T16:44:51.741Z,1.80
2019-05-13T16:47:21.305Z,1.60
2019-05-13T16:49:50.879Z,1.53
2019-05-13T16:52:21.894Z,1.50
2019-05-13T16:54:53.245Z,1.73
2019-05-13T16:57:21.358Z,1.93
2019-05-13T16:59:51.720Z,1.87
2019-05-13T17:02:21.622Z,1.97
2019-05-13T17:04:52.082Z,1.50
2019-05-13T17:07:21.341Z,1.83
2019-05-13T17:09:52.102Z,1.90
2019-05-13T17:12:21.768Z,1.77
2019-05-13T17:14:52.250Z,1.40
2019-05-13T17:17:21.867Z,1.53
2019-05-13T17:19:53.803Z,1.90
2019-05-13T17:22:21.585Z,1.57
2019-05-13T17:24:51.886Z,1.77
2019-05-13T17:27:21.480Z,1.77
2019-05-13T17:29:51.589Z,1.87
2019-05-13T17:32:22.237Z,1.70
2019-05-13T17:34:51.708Z,1.60
2019-05-13T17:37:22.118Z,1.77
2019-05-13T17:39:51.228Z,1.40
2019-05-13T17:42:21.648Z,1.67
2019-05-13T17:44:51.606Z,1.30
2019-05-13T17:47:21.842Z,1.33
2019-05-13T17:49:52.090Z,1.50
2019-05-13T17:52:22.070Z,1.40
2019-05-13T17:54:51.825Z,1.50
2019-05-13T17:57:21.598Z,1.67
2019-05-13T17:59:52.102Z,1.70
2019-05-13T18:02:21.256Z,1.37
2019-05-13T18:04:52.159Z,1.40
2019-05-13T18:07:21.576Z,1.47
2019-05-13T18:09:51.983Z,1.77
2019-05-13T18:12:22.318Z,1.50
2019-05-13T18:14:51.822Z,1.60
2019-05-13T18:17:21.577Z,1.40
2019-05-13T18:19:51.526Z,1.87
2019-05-13T18:22:20.449Z,1.63
2019-05-13T18:24:51.900Z,1.23
2019-05-13T18:27:22.149Z,1.40
2019-05-13T18:29:52.111Z,1.60
2019-05-13T18:32:21.547Z,1.40
2019-05-13T18:34:51.234Z,1.50
2019-05-13T18:37:22.158Z,1.60
2019-05-13T18:39:52.019Z,1.50
2019-05-13T18:42:22.320Z,1.67
2019-05-13T18:44:52.190Z,1.50
2019-05-13T18:47:22.101Z,1.83
2019-05-13T18:49:51.141Z,1.40
2019-05-13T18:52:22.301Z,1.70
2019-05-13T18:54:51.385Z,1.63
2019-05-13T18:57:21.282Z,1.87
2019-05-13T18:59:52.062Z,1.53
2019-05-13T19:02:21.516Z,1.67
2019-05-13T19:04:52.324Z,1.60
2019-05-13T19:07:23.342Z,1.37
2019-05-13T19:09:52.414Z,1.90
2019-05-13T19:12:22.047Z,1.90
2019-05-13T19:14:51.660Z,2.00
2019-05-13T19:17:22.343Z,2.03
2019-05-13T19:19:51.777Z,1.90
2019-05-13T19:22:21.448Z,1.80
2019-05-13T19:24:51.823Z,1.60
2019-05-13T19:27:21.612Z,1.60
2019-05-13T19:29:52.370Z,1.63
2019-05-13T19:32:21.844Z,1.97
2019-05-13T19:34:51.757Z,1.87
2019-05-13T19:37:22.399Z,1.80
2019-05-13T19:39:51.585Z,2.37
2019-05-13T19:42:22.298Z,2.00
2019-05-13T19:44:52.401Z,1.80
2019-05-13T19:47:21.355Z,1.60
2019-05-13T19:49:52.399Z,2.33
2019-05-13T19:52:22.064Z,1.40
2019-05-13T19:54:51.496Z,1.70
2019-05-13T19:57:21.360Z,1.87
2019-05-13T19:59:50.288Z,1.80
2019-05-13T20:02:22.170Z,1.63
2019-05-13T20:04:51.876Z,1.90
2019-05-13T20:07:22.415Z,1.70
2019-05-13T20:09:52.454Z,1.80
2019-05-13T20:12:21.323Z,2.30
2019-05-13T20:14:51.751Z,1.53
2019-05-13T20:17:20.738Z,1.93
2019-05-13T20:19:51.453Z,1.70
2019-05-13T20:22:20.954Z,1.80
2019-05-13T20:24:51.427Z,1.80
2019-05-13T20:27:21.250Z,1.93
2019-05-13T20:29:51.180Z,1.93
2019-05-13T20:32:22.072Z,2.00
2019-05-13T20:34:51.425Z,2.10
2019-05-13T20:37:21.499Z,2.20
2019-05-13T20:39:51.532Z,2.03
2019-05-13T20:42:23.400Z,1.90
2019-05-13T20:44:52.587Z,2.53
2019-05-13T20:47:21.740Z,2.10
2019-05-13T20:49:59.237Z,2.10
2019-05-13T20:52:22.370Z,2.10
2019-05-13T20:54:51.736Z,2.17
2019-05-13T20:57:22.207Z,2.27
2019-05-13T20:59:51.726Z,1.97
2019-05-13T21:02:22.123Z,1.93
2019-05-13T21:04:52.201Z,2.30
2019-05-13T21:07:21.724Z,1.87
2019-05-13T21:09:51.310Z,1.80
2019-05-13T21:12:22.077Z,2.00
2019-05-13T21:14:51.330Z,1.90
2019-05-13T21:17:21.395Z,2.10
2019-05-13T21:19:52.696Z,2.00
2019-05-13T21:22:21.427Z,1.83
2019-05-13T21:24:51.513Z,1.87
2019-05-13T21:27:20.804Z,2.03
2019-05-13T21:29:51.826Z,1.90
2019-05-13T21:32:21.340Z,2.20
2019-05-13T21:34:51.643Z,2.10
2019-05-13T21:37:22.116Z,2.37
2019-05-13T21:39:51.771Z,2.03
2019-05-13T21:42:21.625Z,2.20
2019-05-13T21:44:51.306Z,2.40
2019-05-13T21:47:22.047Z,2.13
2019-05-13T21:49:51.625Z,2.30
2019-05-13T21:52:21.518Z,2.37
2019-05-13T21:54:51.707Z,2.03
2019-05-13T21:57:21.571Z,2.63
2019-05-13T21:59:51.599Z,1.87
2019-05-13T22:02:23.357Z,2.20
2019-05-13T22:04:52.287Z,1.90
2019-05-13T22:07:22.239Z,2.30
2019-05-13T22:09:51.978Z,2.30
2019-05-13T22:12:21.792Z,2.87
2019-05-13T22:14:51.717Z,1.87
2019-05-13T22:17:21.615Z,2.37
2019-05-13T22:19:51.278Z,1.97
2019-05-13T22:22:22.064Z,2.00
2019-05-13T22:24:51.399Z,1.90
2019-05-13T22:27:21.841Z,2.00
2019-05-13T22:29:51.668Z,2.60
2019-05-13T22:32:22.004Z,2.30
2019-05-13T22:34:51.317Z,2.23
2019-05-13T22:37:23.027Z,2.00
2019-05-13T22:39:51.758Z,2.00
2019-05-13T22:42:21.566Z,2.40
2019-05-13T22:44:52.210Z,1.90
2019-05-13T22:47:22.158Z,2.40
2019-05-13T22:49:51.732Z,2.10
2019-05-13T22:52:21.822Z,2.40
2019-05-13T22:54:51.908Z,2.43
2019-05-13T22:57:21.904Z,2.03
2019-05-13T22:59:52.035Z,2.30
2019-05-13T23:02:21.943Z,2.27
2019-05-13T23:04:51.227Z,2.00
2019-05-13T23:07:22.296Z,2.20
2019-05-13T23:09:51.995Z,2.40
2019-05-13T23:12:21.325Z,2.10
2019-05-13T23:14:52.068Z,2.43
2019-05-13T23:17:21.711Z,2.60
2019-05-13T23:19:52.186Z,2.40
2019-05-13T23:22:22.302Z,2.60
2019-05-13T23:24:51.362Z,2.37
2019-05-13T23:27:22.037Z,2.53
2019-05-13T23:29:51.764Z,2.57
2019-05-13T23:32:21.303Z,2.30
2019-05-13T23:34:51.208Z,2.33
2019-05-13T23:37:21.854Z,2.13
2019-05-13T23:39:52.063Z,2.07
2019-05-13T23:42:21.236Z,2.50
2019-05-13T23:44:51.798Z,2.40
2019-05-13T23:47:21.845Z,2.77
2019-05-13T23:49:51.341Z,2.60
2019-05-13T23:52:21.970Z,2.33
2019-05-13T23:54:51.860Z,2.33
2019-05-13T23:57:22.165Z,2.17
2019-05-13T23:59:51.829Z,2.57
